createdAt,value
2022-12-03T00:00:11.880Z,30.38
2022-12-03T00:02:42.740Z,31.58
2022-12-03T00:05:11.620Z,31.17
2022-12-03T00:07:40.544Z,30.67
2022-12-03T00:10:10.400Z,31.75
2022-12-03T00:12:40.678Z,28.25
2022-12-03T00:15:10.548Z,29.10
2022-12-03T00:17:39.140Z,29.33
2022-12-03T00:20:11.419Z,28.02
2022-12-03T00:22:39.923Z,29.45
2022-12-03T00:25:10.117Z,30.33
2022-12-03T00:27:38.801Z,27.40
2022-12-03T00:30:08.800Z,27.73
2022-12-03T00:32:37.463Z,26.55
2022-12-03T00:35:06.281Z,25.90
2022-12-03T00:37:36.969Z,25.95
2022-12-03T00:40:05.486Z,24.80
2022-12-03T00:42:34.104Z,28.92
2022-12-03T00:45:02.831Z,26.42
2022-12-03T00:47:30.981Z,27.98
2022-12-03T00:49:59.852Z,26.90
2022-12-03T00:52:28.453Z,25.85
2022-12-03T00:54:58.509Z,25.80
2022-12-03T00:57:27.370Z,26.05
2022-12-03T00:59:56.172Z,25.20
2022-12-03T01:02:24.864Z,24.80
2022-12-03T01:04:53.585Z,24.75
2022-12-03T01:07:22.560Z,24.95
2022-12-03T01:09:51.158Z,25.40
2022-12-03T01:12:21.681Z,23.83
2022-12-03T01:14:50.258Z,24.50
2022-12-03T01:17:18.867Z,24.13
2022-12-03T01:19:48.630Z,24.65
2022-12-03T01:22:17.488Z,24.23
2022-12-03T01:24:46.253Z,24.40
2022-12-03T01:27:14.928Z,23.55
2022-12-03T01:29:45.210Z,22.70
2022-12-03T01:32:19.848Z,24.63
2022-12-03T01:34:49.249Z,23.05
2022-12-03T01:37:17.843Z,22.98
2022-12-03T01:39:46.721Z,22.80
2022-12-03T01:42:17.780Z,23.67
2022-12-03T01:44:48.421Z,22.23
2022-12-03T01:47:18.528Z,21.95
2022-12-03T01:49:49.604Z,22.67
2022-12-03T01:52:19.586Z,21.63
2022-12-03T01:54:49.217Z,21.20
2022-12-03T01:57:22.536Z,21.98
2022-12-03T01:59:53.212Z,20.23
2022-12-03T02:02:23.839Z,22.00
2022-12-03T02:04:53.265Z,20.08
2022-12-03T02:07:27.252Z,21.67
2022-12-03T02:09:56.707Z,21.75
2022-12-03T02:12:27.126Z,22.33
2022-12-03T02:14:57.422Z,21.15
2022-12-03T02:17:26.064Z,21.63
2022-12-03T02:19:54.677Z,19.83
2022-12-03T02:22:32.164Z,20.83
2022-12-03T02:25:28.030Z,20.52
2022-12-03T02:27:57.234Z,19.40
2022-12-03T02:30:27.113Z,19.33
2022-12-03T02:32:56.025Z,21.08
2022-12-03T02:35:26.041Z,19.13
2022-12-03T02:37:56.740Z,19.83
2022-12-03T02:40:29.105Z,19.92
2022-12-03T02:42:57.365Z,19.23
2022-12-03T02:45:27.240Z,18.63
2022-12-03T02:47:57.140Z,18.80
2022-12-03T02:50:28.732Z,19.00
2022-12-03T02:52:58.143Z,18.88
2022-12-03T02:55:33.513Z,19.05
2022-12-03T02:58:05.851Z,19.90
2022-12-03T03:00:35.549Z,19.65
2022-12-03T03:03:04.129Z,18.30
2022-12-03T03:05:32.937Z,17.20
2022-12-03T03:08:01.890Z,18.05
2022-12-03T03:10:32.306Z,18.15
2022-12-03T03:13:01.047Z,17.75
2022-12-03T03:15:29.682Z,17.98
2022-12-03T03:17:58.370Z,16.25
2022-12-03T03:20:27.180Z,17.42
2022-12-03T03:22:56.057Z,17.17
2022-12-03T03:25:24.967Z,17.92
2022-12-03T03:27:55.525Z,16.13
2022-12-03T03:30:24.161Z,17.35
2022-12-03T03:32:52.976Z,17.50
2022-12-03T03:35:21.492Z,16.55
2022-12-03T03:37:50.320Z,17.88
2022-12-03T03:40:19.468Z,17.15
2022-12-03T03:42:48.547Z,15.88
2022-12-03T03:45:21.636Z,17.10
2022-12-03T03:47:54.265Z,16.75
2022-12-03T03:50:23.232Z,15.88
2022-12-03T03:52:52.017Z,16.40
2022-12-03T03:55:20.681Z,16.60
2022-12-03T03:57:49.582Z,16.25
2022-12-03T04:00:20.976Z,16.23
2022-12-03T04:02:49.867Z,16.58
2022-12-03T04:05:20.043Z,15.68
2022-12-03T04:07:48.948Z,15.98
2022-12-03T04:10:34.126Z,17.13
2022-12-03T04:13:03.354Z,14.35
2022-12-03T04:15:33.774Z,16.30
2022-12-03T04:18:19.734Z,15.55
2022-12-03T04:20:48.384Z,15.05
2022-12-03T04:23:15.689Z,14.63
2022-12-03T04:26:00.892Z,15.15
2022-12-03T04:28:46.553Z,15.70
2022-12-03T04:31:30.141Z,14.48
2022-12-03T04:34:15.803Z,14.35
2022-12-03T04:36:44.114Z,14.40
2022-12-03T04:39:12.281Z,14.63
2022-12-03T04:41:41.547Z,15.80
2022-12-03T04:44:27.248Z,15.93
2022-12-03T04:46:57.560Z,15.13
2022-12-03T04:49:26.144Z,14.57
2022-12-03T04:51:54.430Z,14.23
2022-12-03T04:54:23.407Z,14.13
2022-12-03T04:56:52.261Z,14.98
2022-12-03T04:59:20.988Z,15.52
2022-12-03T05:01:49.628Z,15.27
2022-12-03T05:04:19.900Z,14.65
2022-12-03T05:06:48.226Z,13.80
2022-12-03T05:09:16.515Z,13.65
2022-12-03T05:11:45.419Z,13.98
2022-12-03T05:14:29.318Z,13.50
2022-12-03T05:16:58.454Z,14.45
2022-12-03T05:19:42.157Z,13.95
2022-12-03T05:22:10.971Z,14.38
2022-12-03T05:24:39.564Z,14.15
2022-12-03T05:27:08.425Z,14.10
2022-12-03T05:29:36.881Z,13.25
2022-12-03T05:32:06.015Z,13.63
2022-12-03T05:34:36.238Z,12.73
2022-12-03T05:37:04.862Z,15.13
2022-12-03T05:39:33.350Z,14.30
2022-12-03T05:42:19.312Z,13.43
2022-12-03T05:44:48.125Z,14.43
2022-12-03T05:47:16.959Z,14.93
2022-12-03T05:49:47.309Z,13.45
2022-12-03T05:52:15.732Z,13.48
2022-12-03T05:54:44.742Z,12.45
2022-12-03T05:57:13.331Z,13.20
2022-12-03T05:59:42.158Z,13.73
2022-12-03T06:02:11.118Z,12.30
2022-12-03T06:04:39.768Z,13.70
2022-12-03T06:07:13.921Z,13.05
2022-12-03T06:09:43.023Z,13.30
2022-12-03T06:12:11.815Z,13.05
2022-12-03T06:14:40.574Z,13.40
2022-12-03T06:17:09.557Z,13.80
2022-12-03T06:19:38.205Z,13.48
2022-12-03T06:22:06.599Z,15.13
2022-12-03T06:24:36.485Z,13.80
2022-12-03T06:27:05.315Z,15.88
2022-12-03T06:29:33.989Z,20.10
2022-12-03T06:32:02.479Z,18.02
2022-12-03T06:34:31.370Z,20.15
2022-12-03T06:36:59.823Z,22.05
2022-12-03T06:39:28.559Z,27.70
2022-12-03T06:41:58.608Z,30.90
2022-12-03T06:44:27.032Z,25.60
2022-12-03T06:46:55.930Z,39.88
2022-12-03T06:49:24.865Z,33.10
2022-12-03T06:51:53.656Z,38.85
2022-12-03T06:54:22.564Z,36.20
2022-12-03T06:56:51.360Z,31.40
2022-12-03T06:59:21.859Z,35.30
2022-12-03T07:01:50.796Z,37.83
2022-12-03T07:04:19.647Z,41.00
2022-12-03T07:06:48.051Z,54.80
2022-12-03T07:09:18.445Z,55.28
2022-12-03T07:11:47.301Z,44.80
2022-12-03T07:14:16.084Z,51.35
2022-12-03T07:16:46.687Z,56.15
2022-12-03T07:19:15.771Z,46.70
2022-12-03T07:21:44.608Z,41.50
2022-12-03T07:24:13.501Z,47.72
2022-12-03T07:26:41.901Z,46.78
2022-12-03T07:29:10.768Z,48.08
2022-12-03T07:31:39.429Z,57.72
2022-12-03T07:34:09.220Z,53.45
2022-12-03T07:36:37.476Z,55.45
2022-12-03T07:39:05.560Z,45.20
2022-12-03T07:41:33.949Z,49.65
2022-12-03T07:44:02.324Z,58.92
2022-12-03T07:46:30.699Z,61.03
2022-12-03T07:48:59.573Z,63.80
2022-12-03T07:51:32.320Z,63.38
2022-12-03T07:54:01.909Z,73.13
2022-12-03T07:56:30.385Z,80.45
2022-12-03T07:58:59.258Z,70.45
2022-12-03T08:01:27.921Z,72.45
2022-12-03T08:03:56.665Z,70.05
2022-12-03T08:06:25.432Z,71.45
2022-12-03T08:08:55.189Z,69.32
2022-12-03T08:11:24.025Z,74.15
2022-12-03T08:13:52.833Z,78.90
2022-12-03T08:16:22.683Z,93.63
2022-12-03T08:18:52.089Z,83.35
2022-12-03T08:21:22.017Z,75.25
2022-12-03T08:23:50.968Z,68.53
2022-12-03T08:26:24.639Z,77.35
2022-12-03T08:28:53.833Z,70.43
2022-12-03T08:31:29.272Z,71.47
2022-12-03T08:34:02.564Z,74.47
2022-12-03T08:36:32.153Z,68.80
2022-12-03T08:39:02.782Z,68.82
2022-12-03T08:41:50.770Z,71.22
2022-12-03T08:44:26.098Z,76.45
2022-12-03T08:46:55.784Z,75.10
2022-12-03T08:49:24.360Z,75.53
2022-12-03T08:51:56.400Z,87.55
2022-12-03T08:54:24.963Z,92.63
2022-12-03T08:56:55.182Z,98.55
2022-12-03T08:59:27.852Z,93.45
2022-12-03T09:01:56.621Z,99.90
2022-12-03T09:04:27.239Z,96.28
2022-12-03T09:06:56.599Z,95.30
2022-12-03T09:09:25.444Z,96.03
2022-12-03T09:11:55.855Z,94.85
2022-12-03T09:14:24.712Z,96.80
2022-12-03T09:16:55.985Z,98.75
2022-12-03T09:19:25.460Z,108.65
2022-12-03T09:21:54.293Z,115.85
2022-12-03T09:24:22.818Z,116.95
2022-12-03T09:26:51.428Z,115.93
2022-12-03T09:29:21.241Z,113.68
2022-12-03T09:31:49.460Z,105.55
2022-12-03T09:34:17.654Z,96.07
2022-12-03T09:36:45.799Z,90.15
2022-12-03T09:39:13.889Z,82.57
2022-12-03T09:41:43.881Z,83.25
2022-12-03T09:44:17.474Z,74.18
2022-12-03T09:46:48.612Z,71.47
2022-12-03T09:49:18.190Z,57.80
2022-12-03T09:51:46.866Z,57.53
2022-12-03T09:54:21.088Z,59.28
2022-12-03T09:56:49.497Z,61.38
2022-12-03T09:59:18.210Z,54.25
2022-12-03T10:01:48.564Z,57.90
2022-12-03T10:04:17.856Z,59.55
2022-12-03T10:06:46.737Z,55.20
2022-12-03T10:09:17.485Z,51.03
2022-12-03T10:11:46.088Z,49.63
2022-12-03T10:14:14.902Z,56.50
2022-12-03T10:16:43.927Z,56.03
2022-12-03T10:19:19.070Z,62.63
2022-12-03T10:21:48.025Z,64.75
2022-12-03T10:24:24.072Z,64.53
2022-12-03T10:26:53.477Z,61.55
2022-12-03T10:29:26.943Z,62.38
2022-12-03T10:31:58.061Z,57.35
2022-12-03T10:34:30.825Z,53.35
2022-12-03T10:37:13.498Z,54.33
2022-12-03T10:39:59.125Z,44.42
2022-12-03T10:42:30.582Z,48.35
2022-12-03T10:45:18.068Z,45.55
2022-12-03T10:48:07.664Z,48.60
2022-12-03T10:50:37.503Z,38.83
2022-12-03T10:53:05.926Z,42.92
2022-12-03T10:55:37.236Z,38.92
2022-12-03T10:58:05.624Z,37.65
2022-12-03T11:00:33.820Z,37.20
2022-12-03T11:03:02.249Z,38.00
2022-12-03T11:05:30.615Z,39.85
2022-12-03T11:08:00.418Z,39.70
2022-12-03T11:10:28.882Z,35.75
2022-12-03T11:13:30.828Z,37.60
2022-12-03T11:15:59.175Z,33.42
2022-12-03T11:19:04.176Z,34.55
2022-12-03T11:21:32.335Z,32.38
2022-12-03T11:24:20.552Z,31.88
2022-12-03T11:27:20.635Z,33.97
2022-12-03T11:29:59.213Z,31.73
2022-12-03T11:33:07.367Z,32.55
2022-12-03T11:36:08.178Z,31.88
2022-12-03T11:38:57.332Z,29.83
2022-12-03T11:41:31.506Z,31.75
2022-12-03T11:44:29.297Z,30.52
2022-12-03T11:47:02.173Z,28.15
2022-12-03T11:49:33.504Z,27.98
2022-12-03T11:52:02.508Z,29.00
2022-12-03T11:54:34.560Z,29.40
2022-12-03T11:57:04.318Z,28.88
2022-12-03T11:59:32.544Z,26.50
2022-12-03T12:02:00.667Z,29.63
2022-12-03T12:04:33.469Z,26.15
2022-12-03T12:07:01.723Z,28.15
2022-12-03T12:09:49.085Z,28.23
2022-12-03T12:12:27.045Z,28.15
2022-12-03T12:14:55.209Z,23.73
2022-12-03T12:17:30.581Z,25.63
2022-12-03T12:20:24.705Z,25.73
2022-12-03T12:22:53.349Z,23.98
2022-12-03T12:25:40.739Z,31.55
2022-12-03T12:28:10.433Z,30.52
2022-12-03T12:30:38.612Z,24.48
2022-12-03T12:33:15.817Z,25.27
2022-12-03T12:35:43.980Z,29.98
2022-12-03T12:38:16.944Z,25.15
2022-12-03T12:40:47.001Z,29.30
2022-12-03T12:43:24.595Z,36.13
2022-12-03T12:45:54.652Z,33.30
2022-12-03T12:48:24.965Z,42.15
2022-12-03T12:50:55.729Z,35.97
2022-12-03T12:53:25.121Z,39.38
2022-12-03T12:55:57.448Z,36.00
2022-12-03T12:58:27.391Z,33.67
2022-12-03T13:00:57.541Z,35.80
2022-12-03T13:03:26.869Z,33.08
2022-12-03T13:05:55.181Z,39.55
2022-12-03T13:08:26.296Z,35.10
2022-12-03T13:10:54.993Z,37.60
2022-12-03T13:13:30.846Z,37.08
2022-12-03T13:16:01.125Z,36.05
2022-12-03T13:18:32.855Z,40.25
2022-12-03T13:21:01.105Z,34.50
2022-12-03T13:23:31.474Z,36.53
2022-12-03T13:26:12.872Z,35.78
2022-12-03T13:28:52.609Z,32.28
2022-12-03T13:31:24.164Z,34.45
2022-12-03T13:33:52.705Z,37.75
2022-12-03T13:36:21.641Z,44.22
2022-12-03T13:38:50.089Z,55.65
2022-12-03T13:41:38.125Z,41.00
2022-12-03T13:44:18.427Z,46.90
2022-12-03T13:46:47.110Z,39.63
2022-12-03T13:49:17.361Z,42.42
2022-12-03T13:51:47.225Z,38.38
2022-12-03T13:54:18.153Z,49.40
2022-12-03T13:56:46.293Z,51.03
2022-12-03T13:59:14.625Z,38.28
2022-12-03T14:01:44.322Z,47.95
2022-12-03T14:04:12.913Z,41.38
2022-12-03T14:06:41.092Z,45.45
2022-12-03T14:09:09.443Z,46.88
2022-12-03T14:11:54.856Z,43.42
2022-12-03T14:14:23.038Z,47.55
2022-12-03T14:16:58.227Z,42.25
2022-12-03T14:19:27.946Z,39.65
2022-12-03T14:21:56.058Z,42.88
2022-12-03T14:24:24.192Z,43.42
2022-12-03T14:26:52.269Z,51.40
2022-12-03T14:29:20.406Z,47.42
2022-12-03T14:31:48.595Z,54.03
2022-12-03T14:34:18.299Z,55.90
2022-12-03T14:36:46.557Z,53.90
2022-12-03T14:39:14.704Z,49.50
2022-12-03T14:42:00.169Z,49.80
2022-12-03T14:44:28.498Z,55.00
2022-12-03T14:46:57.688Z,55.53
2022-12-03T14:49:27.667Z,58.72
2022-12-03T14:51:56.022Z,53.67
2022-12-03T14:54:24.372Z,55.75
2022-12-03T14:56:52.524Z,54.85
2022-12-03T14:59:25.894Z,52.30
2022-12-03T15:01:55.794Z,56.85
2022-12-03T15:04:24.015Z,53.30
2022-12-03T15:06:53.700Z,54.92
2022-12-03T15:09:22.697Z,51.50
2022-12-03T15:11:51.429Z,56.65
2022-12-03T15:14:19.576Z,56.15
2022-12-03T15:16:47.915Z,59.80
2022-12-03T15:19:16.286Z,58.10
2022-12-03T15:21:44.493Z,63.72
2022-12-03T15:24:13.963Z,60.28
2022-12-03T15:26:42.197Z,62.70
2022-12-03T15:29:10.298Z,65.93
2022-12-03T15:31:38.522Z,79.50
2022-12-03T15:34:06.689Z,66.75
2022-12-03T15:36:34.807Z,60.72
2022-12-03T15:39:03.037Z,58.53
2022-12-03T15:41:32.753Z,57.97
2022-12-03T15:44:01.587Z,57.45
2022-12-03T15:46:31.355Z,56.40
2022-12-03T15:48:59.817Z,52.03
2022-12-03T15:51:28.025Z,54.80
2022-12-03T15:53:56.177Z,49.60
2022-12-03T15:56:24.315Z,47.67
2022-12-03T15:58:54.654Z,49.85
2022-12-03T16:01:22.905Z,46.30
2022-12-03T16:03:51.132Z,45.30
2022-12-03T16:06:19.697Z,45.85
2022-12-03T16:08:48.329Z,45.42
2022-12-03T16:11:16.581Z,45.08
2022-12-03T16:13:44.808Z,43.13
2022-12-03T16:16:14.728Z,45.53
2022-12-03T16:18:43.918Z,40.63
2022-12-03T16:21:11.988Z,41.40
2022-12-03T16:23:40.195Z,40.65
2022-12-03T16:26:08.367Z,39.40
2022-12-03T16:28:36.557Z,36.85
2022-12-03T16:31:04.768Z,36.15
2022-12-03T16:33:34.488Z,35.67
2022-12-03T16:36:03.653Z,39.08
2022-12-03T16:38:33.632Z,35.45
2022-12-03T16:41:02.416Z,33.92
2022-12-03T16:43:30.533Z,35.60
2022-12-03T16:46:20.688Z,33.28
2022-12-03T16:48:50.739Z,32.58
2022-12-03T16:51:19.362Z,32.40
2022-12-03T16:53:47.635Z,31.50
2022-12-03T16:56:16.089Z,30.75
2022-12-03T16:58:44.293Z,32.88
2022-12-03T17:01:12.622Z,29.60
2022-12-03T17:03:40.992Z,28.70
2022-12-03T17:06:10.591Z,28.77
2022-12-03T17:08:39.700Z,28.80
2022-12-03T17:11:09.275Z,28.90
2022-12-03T17:13:37.604Z,28.30
2022-12-03T17:16:06.915Z,28.75
2022-12-03T17:18:35.234Z,27.77
2022-12-03T17:21:03.442Z,26.90
2022-12-03T17:23:33.088Z,25.52
2022-12-03T17:26:01.292Z,28.52
2022-12-03T17:28:29.364Z,26.20
2022-12-03T17:30:57.598Z,26.65
2022-12-03T17:33:26.583Z,27.63
2022-12-03T17:35:54.784Z,26.77
2022-12-03T17:38:22.953Z,24.08
2022-12-03T17:40:52.484Z,24.35
2022-12-03T17:43:20.650Z,24.17
2022-12-03T17:45:48.746Z,25.95
2022-12-03T17:48:16.929Z,25.92
2022-12-03T17:50:45.205Z,24.80
2022-12-03T17:53:13.389Z,26.23
2022-12-03T17:55:45.071Z,27.60
2022-12-03T17:58:15.661Z,27.15
2022-12-03T18:00:43.924Z,27.33
2022-12-03T18:03:12.193Z,25.83
2022-12-03T18:05:40.301Z,28.13
2022-12-03T18:08:08.551Z,29.30
2022-12-03T18:10:36.773Z,31.77
2022-12-03T18:13:05.026Z,29.35
2022-12-03T18:15:34.543Z,29.25
2022-12-03T18:18:02.653Z,29.98
2022-12-03T18:20:32.098Z,29.55
2022-12-03T18:23:00.302Z,30.58
2022-12-03T18:25:28.414Z,30.08
2022-12-03T18:27:56.590Z,28.42
2022-12-03T18:30:24.753Z,29.40
2022-12-03T18:32:54.660Z,29.15
2022-12-03T18:35:22.997Z,26.52
2022-12-03T18:37:51.805Z,29.33
2022-12-03T18:40:21.063Z,28.02
2022-12-03T18:42:49.353Z,26.83
2022-12-03T18:45:17.825Z,28.58
2022-12-03T18:47:46.204Z,27.65
2022-12-03T18:50:16.048Z,26.58
2022-12-03T18:52:44.316Z,29.15
2022-12-03T18:55:14.053Z,29.73
2022-12-03T18:57:42.573Z,30.98
2022-12-03T19:00:13.729Z,32.05
2022-12-03T19:03:02.456Z,35.75
2022-12-03T19:05:32.684Z,34.67
2022-12-03T19:08:01.103Z,36.20
2022-12-03T19:10:29.405Z,36.85
2022-12-03T19:12:57.731Z,35.22
2022-12-03T19:15:25.926Z,37.72
2022-12-03T19:17:54.241Z,34.03
2022-12-03T19:20:22.453Z,36.22
2022-12-03T19:22:52.221Z,43.13
2022-12-03T19:25:20.411Z,44.90
2022-12-03T19:27:50.231Z,42.90
2022-12-03T19:30:18.981Z,42.83
2022-12-03T19:32:48.963Z,40.90
2022-12-03T19:35:17.305Z,39.05
2022-12-03T19:37:46.357Z,49.17
2022-12-03T19:40:16.324Z,43.58
2022-12-03T19:42:44.479Z,45.50
2022-12-03T19:45:12.804Z,46.95
2022-12-03T19:47:40.964Z,47.58
2022-12-03T19:50:10.317Z,45.53
2022-12-03T19:52:38.493Z,47.38
2022-12-03T19:55:07.132Z,45.42
2022-12-03T19:57:36.665Z,49.28
2022-12-03T20:00:06.731Z,44.35
2022-12-03T20:02:40.443Z,45.42
2022-12-03T20:05:08.830Z,46.42
2022-12-03T20:07:36.999Z,46.92
2022-12-03T20:10:06.189Z,47.45
2022-12-03T20:12:34.293Z,45.80
2022-12-03T20:15:03.891Z,48.45
2022-12-03T20:17:32.014Z,46.90
2022-12-03T20:20:00.255Z,47.83
2022-12-03T20:22:28.430Z,50.15
2022-12-03T20:24:56.588Z,46.47
2022-12-03T20:27:24.696Z,49.15
2022-12-03T20:29:53.227Z,49.65
2022-12-03T20:32:22.970Z,48.17
2022-12-03T20:34:51.072Z,49.17
2022-12-03T20:37:19.285Z,48.70
2022-12-03T20:39:47.461Z,46.45
2022-12-03T20:42:15.525Z,46.85
2022-12-03T20:44:43.716Z,44.85
2022-12-03T20:47:11.796Z,46.95
2022-12-03T20:49:41.543Z,45.08
2022-12-03T20:52:09.708Z,44.70
2022-12-03T20:54:37.917Z,44.13
2022-12-03T20:57:06.034Z,42.28
2022-12-03T20:59:34.104Z,43.38
2022-12-03T21:02:02.395Z,43.25
2022-12-03T21:04:30.567Z,42.90
2022-12-03T21:07:00.101Z,43.63
2022-12-03T21:09:28.217Z,41.67
2022-12-03T21:11:56.418Z,40.83
2022-12-03T21:14:24.511Z,40.35
2022-12-03T21:17:07.732Z,39.50
2022-12-03T21:19:36.823Z,41.60
2022-12-03T21:22:06.395Z,41.25
2022-12-03T21:24:34.727Z,39.20
2022-12-03T21:27:02.813Z,38.47
2022-12-03T21:29:30.973Z,39.70
2022-12-03T21:31:59.044Z,38.13
2022-12-03T21:34:31.312Z,33.67
2022-12-03T21:37:03.993Z,36.42
2022-12-03T21:39:33.458Z,36.55
2022-12-03T21:42:34.530Z,34.95
2022-12-03T21:44:49.755Z,36.85
2022-12-03T21:47:17.896Z,32.53
2022-12-03T21:49:46.113Z,31.15
2022-12-03T21:52:14.187Z,30.08
2022-12-03T21:54:43.722Z,29.65
2022-12-03T21:57:11.859Z,31.42
2022-12-03T21:59:40.079Z,28.00
2022-12-03T22:02:08.309Z,28.55
2022-12-03T22:04:36.723Z,27.83
2022-12-03T22:07:05.012Z,28.45
2022-12-03T22:09:33.328Z,30.88
2022-12-03T22:12:02.813Z,29.77
2022-12-03T22:14:31.029Z,27.40
2022-12-03T22:16:59.133Z,26.25
2022-12-03T22:19:27.356Z,28.20
2022-12-03T22:21:55.458Z,26.80
2022-12-03T22:24:24.091Z,26.80
2022-12-03T22:26:54.797Z,25.08
2022-12-03T22:29:24.362Z,27.65
2022-12-03T22:31:52.491Z,26.63
2022-12-03T22:34:20.604Z,28.75
2022-12-03T22:36:48.681Z,26.90
2022-12-03T22:39:16.805Z,31.33
2022-12-03T22:41:44.880Z,26.75
2022-12-03T22:44:13.040Z,23.65
2022-12-03T22:46:42.628Z,28.35
2022-12-03T22:49:11.143Z,25.25
2022-12-03T22:51:39.252Z,26.02
2022-12-03T22:54:07.462Z,25.05
2022-12-03T22:56:35.562Z,23.55
2022-12-03T22:59:03.701Z,24.58
2022-12-03T23:01:32.725Z,24.88
2022-12-03T23:04:02.474Z,24.27
2022-12-03T23:06:31.022Z,25.75
2022-12-03T23:08:59.494Z,25.05
2022-12-03T23:11:27.842Z,22.35
2022-12-03T23:13:55.952Z,24.55
2022-12-03T23:16:26.137Z,23.67
2022-12-03T23:18:54.446Z,24.80
2022-12-03T23:21:29.303Z,23.90
2022-12-03T23:23:58.354Z,21.65
2022-12-03T23:26:26.467Z,23.92
2022-12-03T23:28:54.614Z,22.02
2022-12-03T23:31:23.702Z,20.70
2022-12-03T23:33:52.132Z,21.45
2022-12-03T23:36:20.556Z,21.48
2022-12-03T23:38:50.109Z,19.95
2022-12-03T23:41:19.761Z,21.52
2022-12-03T23:43:48.017Z,22.85
2022-12-03T23:46:18.307Z,19.15
2022-12-03T23:48:46.601Z,20.48
2022-12-03T23:51:16.484Z,22.55
2022-12-03T23:53:44.883Z,20.35
2022-12-03T23:56:15.173Z,19.83
2022-12-03T23:58:43.381Z,20.17
